sensor_id;sensor_type;location;lat;lon;timestamp;temperature;humidity
23957;DHT22;12165;45.458;11.062;2022-07-10T00:01:03;21.10;99.90
23957;DHT22;12165;45.458;11.062;2022-07-10T00:03:30;21.10;99.90
23957;DHT22;12165;45.458;11.062;2022-07-10T00:05:57;21.10;99.90
23957;DHT22;12165;45.458;11.062;2022-07-10T00:08:24;21.20;99.90
23957;DHT22;12165;45.458;11.062;2022-07-10T00:10:52;21.10;99.90
23957;DHT22;12165;45.458;11.062;2022-07-10T00:13:37;21.00;99.90
23957;DHT22;12165;45.458;11.062;2022-07-10T00:16:05;21.00;99.90
23957;DHT22;12165;45.458;11.062;2022-07-10T00:18:32;20.90;99.90
23957;DHT22;12165;45.458;11.062;2022-07-10T00:20:59;20.80;99.90
23957;DHT22;12165;45.458;11.062;2022-07-10T00:23:26;20.90;99.90
23957;DHT22;12165;45.458;11.062;2022-07-10T00:25:53;20.90;99.90
23957;DHT22;12165;45.458;11.062;2022-07-10T00:28:21;20.80;99.90
23957;DHT22;12165;45.458;11.062;2022-07-10T00:30:48;20.80;99.90
23957;DHT22;12165;45.458;11.062;2022-07-10T00:33:15;20.90;99.90
23957;DHT22;12165;45.458;11.062;2022-07-10T00:35:42;21.00;99.90
23957;DHT22;12165;45.458;11.062;2022-07-10T00:38:09;21.00;99.90
23957;DHT22;12165;45.458;11.062;2022-07-10T00:40:36;21.00;99.90
23957;DHT22;12165;45.458;11.062;2022-07-10T00:43:03;21.10;99.90
23957;DHT22;12165;45.458;11.062;2022-07-10T00:45:34;21.00;99.90
23957;DHT22;12165;45.458;11.062;2022-07-10T00:48:01;21.00;99.90
23957;DHT22;12165;45.458;11.062;2022-07-10T00:50:29;21.10;99.90
23957;DHT22;12165;45.458;11.062;2022-07-10T00:52:56;21.10;99.90
23957;DHT22;12165;45.458;11.062;2022-07-10T00:55:23;21.20;99.90
23957;DHT22;12165;45.458;11.062;2022-07-10T00:57:50;21.20;99.90
23957;DHT22;12165;45.458;11.062;2022-07-10T01:00:17;21.30;99.90
23957;DHT22;12165;45.458;11.062;2022-07-10T01:02:45;21.40;99.90
23957;DHT22;12165;45.458;11.062;2022-07-10T01:05:13;21.40;99.90
23957;DHT22;12165;45.458;11.062;2022-07-10T01:07:40;21.40;99.90
23957;DHT22;12165;45.458;11.062;2022-07-10T01:10:07;21.40;99.90
23957;DHT22;12165;45.458;11.062;2022-07-10T01:12:34;21.40;99.90
23957;DHT22;12165;45.458;11.062;2022-07-10T01:15:03;21.40;99.90
23957;DHT22;12165;45.458;11.062;2022-07-10T01:17:30;21.40;99.90
23957;DHT22;12165;45.458;11.062;2022-07-10T01:19:58;21.50;99.90
23957;DHT22;12165;45.458;11.062;2022-07-10T01:22:25;21.50;99.90
23957;DHT22;12165;45.458;11.062;2022-07-10T01:24:54;21.50;99.90
23957;DHT22;12165;45.458;11.062;2022-07-10T01:27:21;21.40;99.90
23957;DHT22;12165;45.458;11.062;2022-07-10T01:29:48;21.40;99.90
23957;DHT22;12165;45.458;11.062;2022-07-10T01:32:16;21.40;99.90
23957;DHT22;12165;45.458;11.062;2022-07-10T01:34:43;21.30;99.90
23957;DHT22;12165;45.458;11.062;2022-07-10T01:37:10;21.10;99.90
23957;DHT22;12165;45.458;11.062;2022-07-10T01:39:37;21.00;99.90
23957;DHT22;12165;45.458;11.062;2022-07-10T01:42:05;20.80;99.90
23957;DHT22;12165;45.458;11.062;2022-07-10T01:44:32;20.80;99.90
23957;DHT22;12165;45.458;11.062;2022-07-10T01:46:59;20.80;99.90
23957;DHT22;12165;45.458;11.062;2022-07-10T01:49:26;20.70;99.90
23957;DHT22;12165;45.458;11.062;2022-07-10T01:51:53;20.70;99.90
23957;DHT22;12165;45.458;11.062;2022-07-10T01:54:20;20.70;99.90
23957;DHT22;12165;45.458;11.062;2022-07-10T01:56:47;20.70;99.90
23957;DHT22;12165;45.458;11.062;2022-07-10T01:59:14;20.70;99.90
23957;DHT22;12165;45.458;11.062;2022-07-10T02:01:41;20.70;99.90
23957;DHT22;12165;45.458;11.062;2022-07-10T02:04:08;20.60;99.90
23957;DHT22;12165;45.458;11.062;2022-07-10T02:06:53;20.50;99.90
23957;DHT22;12165;45.458;11.062;2022-07-10T02:09:20;20.50;99.90
23957;DHT22;12165;45.458;11.062;2022-07-10T02:11:47;20.40;99.90
23957;DHT22;12165;45.458;11.062;2022-07-10T02:14:14;20.40;99.90
23957;DHT22;12165;45.458;11.062;2022-07-10T02:16:41;20.30;99.90
23957;DHT22;12165;45.458;11.062;2022-07-10T02:19:10;20.30;99.90
23957;DHT22;12165;45.458;11.062;2022-07-10T02:21:38;20.20;99.90
23957;DHT22;12165;45.458;11.062;2022-07-10T02:24:05;20.20;99.90
23957;DHT22;12165;45.458;11.062;2022-07-10T02:26:32;20.10;99.90
23957;DHT22;12165;45.458;11.062;2022-07-10T02:28:59;20.00;99.90
23957;DHT22;12165;45.458;11.062;2022-07-10T02:31:26;19.90;99.90
23957;DHT22;12165;45.458;11.062;2022-07-10T02:33:53;19.90;99.90
23957;DHT22;12165;45.458;11.062;2022-07-10T02:36:20;19.90;99.90
23957;DHT22;12165;45.458;11.062;2022-07-10T02:38:47;19.80;99.90
23957;DHT22;12165;45.458;11.062;2022-07-10T02:41:14;19.80;99.90
23957;DHT22;12165;45.458;11.062;2022-07-10T02:43:41;19.80;99.90
23957;DHT22;12165;45.458;11.062;2022-07-10T02:46:08;19.90;99.90
23957;DHT22;12165;45.458;11.062;2022-07-10T02:48:35;19.90;99.90
23957;DHT22;12165;45.458;11.062;2022-07-10T02:51:02;19.90;99.90
23957;DHT22;12165;45.458;11.062;2022-07-10T02:53:29;19.90;99.90
23957;DHT22;12165;45.458;11.062;2022-07-10T02:55:57;19.80;99.90
23957;DHT22;12165;45.458;11.062;2022-07-10T02:58:25;19.70;99.90
23957;DHT22;12165;45.458;11.062;2022-07-10T03:00:52;19.70;99.90
23957;DHT22;12165;45.458;11.062;2022-07-10T03:03:20;19.70;99.90
23957;DHT22;12165;45.458;11.062;2022-07-10T03:05:47;19.80;99.90
23957;DHT22;12165;45.458;11.062;2022-07-10T03:08:14;19.80;99.90
23957;DHT22;12165;45.458;11.062;2022-07-10T03:10:41;19.80;99.90
23957;DHT22;12165;45.458;11.062;2022-07-10T03:13:09;19.70;99.90
23957;DHT22;12165;45.458;11.062;2022-07-10T03:15:36;19.80;99.90
23957;DHT22;12165;45.458;11.062;2022-07-10T03:18:03;19.70;99.90
23957;DHT22;12165;45.458;11.062;2022-07-10T03:20:31;19.80;99.90
23957;DHT22;12165;45.458;11.062;2022-07-10T03:22:58;19.90;99.90
23957;DHT22;12165;45.458;11.062;2022-07-10T03:25:25;20.10;99.90
23957;DHT22;12165;45.458;11.062;2022-07-10T03:27:52;19.90;99.90
23957;DHT22;12165;45.458;11.062;2022-07-10T03:30:19;19.90;99.90
23957;DHT22;12165;45.458;11.062;2022-07-10T03:32:46;19.90;99.90
23957;DHT22;12165;45.458;11.062;2022-07-10T03:35:13;20.00;99.90
23957;DHT22;12165;45.458;11.062;2022-07-10T03:37:40;20.00;99.90
23957;DHT22;12165;45.458;11.062;2022-07-10T03:40:08;19.80;99.90
23957;DHT22;12165;45.458;11.062;2022-07-10T03:42:35;19.90;99.90
23957;DHT22;12165;45.458;11.062;2022-07-10T03:45:03;19.90;99.90
23957;DHT22;12165;45.458;11.062;2022-07-10T03:47:30;19.90;99.90
23957;DHT22;12165;45.458;11.062;2022-07-10T03:49:57;19.80;99.90
23957;DHT22;12165;45.458;11.062;2022-07-10T03:52:24;19.80;99.90
23957;DHT22;12165;45.458;11.062;2022-07-10T03:54:53;19.90;99.90
23957;DHT22;12165;45.458;11.062;2022-07-10T03:57:20;19.90;99.90
23957;DHT22;12165;45.458;11.062;2022-07-10T04:00:06;20.00;99.90
23957;DHT22;12165;45.458;11.062;2022-07-10T04:02:37;20.00;99.90
23957;DHT22;12165;45.458;11.062;2022-07-10T04:05:06;20.00;99.90
23957;DHT22;12165;45.458;11.062;2022-07-10T04:07:34;20.00;99.90
23957;DHT22;12165;45.458;11.062;2022-07-10T04:10:02;20.00;99.90
23957;DHT22;12165;45.458;11.062;2022-07-10T04:12:29;20.00;99.90
23957;DHT22;12165;45.458;11.062;2022-07-10T04:14:56;20.00;99.90
23957;DHT22;12165;45.458;11.062;2022-07-10T04:17:23;20.00;99.90
23957;DHT22;12165;45.458;11.062;2022-07-10T04:19:50;20.00;99.90
23957;DHT22;12165;45.458;11.062;2022-07-10T04:22:17;20.10;99.90
23957;DHT22;12165;45.458;11.062;2022-07-10T04:24:44;20.10;99.90
23957;DHT22;12165;45.458;11.062;2022-07-10T04:27:10;20.10;99.90
23957;DHT22;12165;45.458;11.062;2022-07-10T04:29:37;20.10;99.90
23957;DHT22;12165;45.458;11.062;2022-07-10T04:32:05;20.20;99.90
23957;DHT22;12165;45.458;11.062;2022-07-10T04:34:32;20.30;99.90
23957;DHT22;12165;45.458;11.062;2022-07-10T04:36:59;20.30;99.90
23957;DHT22;12165;45.458;11.062;2022-07-10T04:39:26;20.30;99.90
23957;DHT22;12165;45.458;11.062;2022-07-10T04:41:54;20.30;99.90
23957;DHT22;12165;45.458;11.062;2022-07-10T04:44:21;20.30;99.90
23957;DHT22;12165;45.458;11.062;2022-07-10T04:46:48;20.30;99.90
23957;DHT22;12165;45.458;11.062;2022-07-10T04:49:15;20.30;99.90
23957;DHT22;12165;45.458;11.062;2022-07-10T04:51:42;20.30;99.90
23957;DHT22;12165;45.458;11.062;2022-07-10T04:54:13;20.40;99.90
23957;DHT22;12165;45.458;11.062;2022-07-10T04:56:40;20.40;99.90
23957;DHT22;12165;45.458;11.062;2022-07-10T04:59:07;20.60;99.90
23957;DHT22;12165;45.458;11.062;2022-07-10T05:01:36;20.80;99.90
23957;DHT22;12165;45.458;11.062;2022-07-10T05:04:04;20.90;99.90
23957;DHT22;12165;45.458;11.062;2022-07-10T05:06:31;21.10;99.90
23957;DHT22;12165;45.458;11.062;2022-07-10T05:08:58;21.20;99.90
23957;DHT22;12165;45.458;11.062;2022-07-10T05:11:26;21.30;99.90
23957;DHT22;12165;45.458;11.062;2022-07-10T05:13:53;21.40;99.90
23957;DHT22;12165;45.458;11.062;2022-07-10T05:16:20;21.60;99.90
23957;DHT22;12165;45.458;11.062;2022-07-10T05:18:47;21.70;99.90
23957;DHT22;12165;45.458;11.062;2022-07-10T05:21:15;21.90;99.90
23957;DHT22;12165;45.458;11.062;2022-07-10T05:23:42;22.10;99.90
23957;DHT22;12165;45.458;11.062;2022-07-10T05:26:09;23.20;99.90
23957;DHT22;12165;45.458;11.062;2022-07-10T05:28:36;26.50;99.90
23957;DHT22;12165;45.458;11.062;2022-07-10T05:31:03;28.60;99.90
23957;DHT22;12165;45.458;11.062;2022-07-10T05:33:30;29.80;99.90
23957;DHT22;12165;45.458;11.062;2022-07-10T05:35:59;31.20;97.20
23957;DHT22;12165;45.458;11.062;2022-07-10T05:38:27;32.40;94.00
23957;DHT22;12165;45.458;11.062;2022-07-10T05:40:54;33.50;91.20
23957;DHT22;12165;45.458;11.062;2022-07-10T05:43:21;33.30;89.10
23957;DHT22;12165;45.458;11.062;2022-07-10T05:45:48;32.80;86.40
23957;DHT22;12165;45.458;11.062;2022-07-10T05:48:22;33.60;83.90
23957;DHT22;12165;45.458;11.062;2022-07-10T05:50:49;34.40;82.10
23957;DHT22;12165;45.458;11.062;2022-07-10T05:53:16;34.80;79.50
23957;DHT22;12165;45.458;11.062;2022-07-10T05:55:49;31.80;83.80
23957;DHT22;12165;45.458;11.062;2022-07-10T05:58:16;28.70;90.60
23957;DHT22;12165;45.458;11.062;2022-07-10T06:00:43;27.20;93.20
23957;DHT22;12165;45.458;11.062;2022-07-10T06:03:11;26.50;94.40
23957;DHT22;12165;45.458;11.062;2022-07-10T06:05:38;29.20;92.20
23957;DHT22;12165;45.458;11.062;2022-07-10T06:08:05;29.30;91.10
23957;DHT22;12165;45.458;11.062;2022-07-10T06:10:32;28.10;92.60
23957;DHT22;12165;45.458;11.062;2022-07-10T06:12:59;28.50;92.70
23957;DHT22;12165;45.458;11.062;2022-07-10T06:15:26;27.70;93.40
23957;DHT22;12165;45.458;11.062;2022-07-10T06:17:56;27.10;93.60
23957;DHT22;12165;45.458;11.062;2022-07-10T06:20:27;26.90;93.80
23957;DHT22;12165;45.458;11.062;2022-07-10T06:22:54;26.70;94.10
23957;DHT22;12165;45.458;11.062;2022-07-10T06:25:21;26.90;94.00
23957;DHT22;12165;45.458;11.062;2022-07-10T06:27:49;28.70;92.60
23957;DHT22;12165;45.458;11.062;2022-07-10T06:30:16;33.70;85.10
23957;DHT22;12165;45.458;11.062;2022-07-10T06:32:43;36.30;76.70
23957;DHT22;12165;45.458;11.062;2022-07-10T06:35:11;37.50;72.70
23957;DHT22;12165;45.458;11.062;2022-07-10T06:37:38;38.00;69.20
23957;DHT22;12165;45.458;11.062;2022-07-10T06:40:05;37.40;68.20
23957;DHT22;12165;45.458;11.062;2022-07-10T06:42:33;37.70;66.30
23957;DHT22;12165;45.458;11.062;2022-07-10T06:45:00;38.10;65.20
23957;DHT22;12165;45.458;11.062;2022-07-10T06:47:27;39.10;63.50
23957;DHT22;12165;45.458;11.062;2022-07-10T06:50:12;39.30;61.10
23957;DHT22;12165;45.458;11.062;2022-07-10T06:52:39;39.70;61.10
23957;DHT22;12165;45.458;11.062;2022-07-10T06:55:07;39.00;57.90
23957;DHT22;12165;45.458;11.062;2022-07-10T06:57:34;39.20;56.10
23957;DHT22;12165;45.458;11.062;2022-07-10T07:00:02;39.50;56.30
23957;DHT22;12165;45.458;11.062;2022-07-10T07:02:30;38.80;54.40
23957;DHT22;12165;45.458;11.062;2022-07-10T07:04:57;38.80;56.00
23957;DHT22;12165;45.458;11.062;2022-07-10T07:07:24;39.00;53.20
23957;DHT22;12165;45.458;11.062;2022-07-10T07:09:52;39.10;54.00
23957;DHT22;12165;45.458;11.062;2022-07-10T07:12:19;39.10;52.80
23957;DHT22;12165;45.458;11.062;2022-07-10T07:14:47;38.90;52.60
23957;DHT22;12165;45.458;11.062;2022-07-10T07:17:14;38.30;53.20
23957;DHT22;12165;45.458;11.062;2022-07-10T07:19:48;37.80;53.30
23957;DHT22;12165;45.458;11.062;2022-07-10T07:22:34;38.60;53.00
23957;DHT22;12165;45.458;11.062;2022-07-10T07:25:20;38.10;53.00
23957;DHT22;12165;45.458;11.062;2022-07-10T07:27:47;38.60;52.30
23957;DHT22;12165;45.458;11.062;2022-07-10T07:30:15;39.10;51.90
23957;DHT22;12165;45.458;11.062;2022-07-10T07:32:43;38.70;52.70
23957;DHT22;12165;45.458;11.062;2022-07-10T07:35:11;39.10;52.60
23957;DHT22;12165;45.458;11.062;2022-07-10T07:37:39;38.70;52.10
23957;DHT22;12165;45.458;11.062;2022-07-10T07:40:11;38.50;53.40
23957;DHT22;12165;45.458;11.062;2022-07-10T07:42:39;38.30;53.00
23957;DHT22;12165;45.458;11.062;2022-07-10T07:45:09;37.50;54.10
23957;DHT22;12165;45.458;11.062;2022-07-10T07:47:47;35.90;55.40
23957;DHT22;12165;45.458;11.062;2022-07-10T07:50:25;34.50;56.50
23957;DHT22;12165;45.458;11.062;2022-07-10T07:52:53;33.00;58.30
23957;DHT22;12165;45.458;11.062;2022-07-10T07:55:22;32.10;58.30
23957;DHT22;12165;45.458;11.062;2022-07-10T07:57:54;31.70;59.60
23957;DHT22;12165;45.458;11.062;2022-07-10T08:00:22;31.70;59.20
23957;DHT22;12165;45.458;11.062;2022-07-10T08:02:51;31.50;60.10
23957;DHT22;12165;45.458;11.062;2022-07-10T08:05:19;31.20;61.20
23957;DHT22;12165;45.458;11.062;2022-07-10T08:07:50;31.60;60.40
23957;DHT22;12165;45.458;11.062;2022-07-10T08:10:20;31.30;60.60
23957;DHT22;12165;45.458;11.062;2022-07-10T08:12:47;30.80;61.20
23957;DHT22;12165;45.458;11.062;2022-07-10T08:15:16;30.70;62.10
23957;DHT22;12165;45.458;11.062;2022-07-10T08:17:46;30.40;63.10
23957;DHT22;12165;45.458;11.062;2022-07-10T08:20:14;30.30;63.50
23957;DHT22;12165;45.458;11.062;2022-07-10T08:22:41;31.20;62.70
23957;DHT22;12165;45.458;11.062;2022-07-10T08:25:10;31.70;61.90
23957;DHT22;12165;45.458;11.062;2022-07-10T08:27:37;31.70;60.30
23957;DHT22;12165;45.458;11.062;2022-07-10T08:30:05;31.60;60.70
23957;DHT22;12165;45.458;11.062;2022-07-10T08:32:32;31.60;59.60
23957;DHT22;12165;45.458;11.062;2022-07-10T08:34:59;31.20;61.20
23957;DHT22;12165;45.458;11.062;2022-07-10T08:37:26;31.90;59.70
23957;DHT22;12165;45.458;11.062;2022-07-10T08:39:54;32.20;61.30
23957;DHT22;12165;45.458;11.062;2022-07-10T08:42:21;32.10;59.00
23957;DHT22;12165;45.458;11.062;2022-07-10T08:44:51;32.10;60.40
23957;DHT22;12165;45.458;11.062;2022-07-10T08:47:21;32.10;58.60
23957;DHT22;12165;45.458;11.062;2022-07-10T08:49:49;32.20;58.60
23957;DHT22;12165;45.458;11.062;2022-07-10T08:52:25;32.60;59.20
23957;DHT22;12165;45.458;11.062;2022-07-10T08:54:53;32.40;58.50
23957;DHT22;12165;45.458;11.062;2022-07-10T08:57:23;31.90;58.60
23957;DHT22;12165;45.458;11.062;2022-07-10T08:59:51;32.20;58.50
23957;DHT22;12165;45.458;11.062;2022-07-10T09:02:18;32.00;58.80
23957;DHT22;12165;45.458;11.062;2022-07-10T09:04:45;32.00;58.90
23957;DHT22;12165;45.458;11.062;2022-07-10T09:07:12;32.00;58.30
23957;DHT22;12165;45.458;11.062;2022-07-10T09:10:00;31.40;59.80
23957;DHT22;12165;45.458;11.062;2022-07-10T09:15:23;32.20;59.40
23957;DHT22;12165;45.458;11.062;2022-07-10T09:20:33;31.90;59.60
23957;DHT22;12165;45.458;11.062;2022-07-10T09:23:16;31.80;60.60
23957;DHT22;12165;45.458;11.062;2022-07-10T09:25:50;32.30;60.30
23957;DHT22;12165;45.458;11.062;2022-07-10T09:28:21;32.30;59.80
23957;DHT22;12165;45.458;11.062;2022-07-10T09:30:49;32.80;59.40
23957;DHT22;12165;45.458;11.062;2022-07-10T09:36:14;32.90;59.80
23957;DHT22;12165;45.458;11.062;2022-07-10T09:46:39;33.00;59.80
23957;DHT22;12165;45.458;11.062;2022-07-10T09:49:13;32.70;60.80
23957;DHT22;12165;45.458;11.062;2022-07-10T09:51:44;33.20;60.50
23957;DHT22;12165;45.458;11.062;2022-07-10T09:54:15;33.10;60.10
23957;DHT22;12165;45.458;11.062;2022-07-10T09:56:45;33.10;61.30
23957;DHT22;12165;45.458;11.062;2022-07-10T09:59:15;32.70;60.70
23957;DHT22;12165;45.458;11.062;2022-07-10T10:01:48;32.60;61.80
23957;DHT22;12165;45.458;11.062;2022-07-10T10:04:17;33.30;61.90
23957;DHT22;12165;45.458;11.062;2022-07-10T10:06:52;32.70;61.80
23957;DHT22;12165;45.458;11.062;2022-07-10T10:09:26;33.00;62.30
23957;DHT22;12165;45.458;11.062;2022-07-10T10:11:59;33.40;61.90
23957;DHT22;12165;45.458;11.062;2022-07-10T10:14:29;33.20;61.20
23957;DHT22;12165;45.458;11.062;2022-07-10T10:16:58;33.00;62.40
23957;DHT22;12165;45.458;11.062;2022-07-10T10:19:26;33.10;62.30
23957;DHT22;12165;45.458;11.062;2022-07-10T10:22:18;32.70;63.10
23957;DHT22;12165;45.458;11.062;2022-07-10T10:24:45;33.50;63.40
23957;DHT22;12165;45.458;11.062;2022-07-10T10:27:14;33.10;62.50
23957;DHT22;12165;45.458;11.062;2022-07-10T10:29:42;32.70;63.40
23957;DHT22;12165;45.458;11.062;2022-07-10T10:32:10;33.10;64.00
23957;DHT22;12165;45.458;11.062;2022-07-10T10:34:44;33.30;63.30
23957;DHT22;12165;45.458;11.062;2022-07-10T10:39:57;33.40;62.20
23957;DHT22;12165;45.458;11.062;2022-07-10T10:42:41;33.50;63.10
23957;DHT22;12165;45.458;11.062;2022-07-10T10:48:04;33.60;62.90
23957;DHT22;12165;45.458;11.062;2022-07-10T10:50:53;33.20;62.70
23957;DHT22;12165;45.458;11.062;2022-07-10T10:58:39;32.80;63.70
23957;DHT22;12165;45.458;11.062;2022-07-10T11:01:26;33.50;63.60
23957;DHT22;12165;45.458;11.062;2022-07-10T11:06:49;33.60;63.10
23957;DHT22;12165;45.458;11.062;2022-07-10T11:09:33;34.30;62.10
23957;DHT22;12165;45.458;11.062;2022-07-10T11:12:10;33.60;62.40
23957;DHT22;12165;45.458;11.062;2022-07-10T11:14:40;34.30;62.90
23957;DHT22;12165;45.458;11.062;2022-07-10T11:17:11;34.10;61.90
23957;DHT22;12165;45.458;11.062;2022-07-10T11:19:38;33.90;61.50
23957;DHT22;12165;45.458;11.062;2022-07-10T11:22:46;33.30;62.20
23957;DHT22;12165;45.458;11.062;2022-07-10T11:28:06;33.80;63.10
23957;DHT22;12165;45.458;11.062;2022-07-10T11:30:52;33.90;62.50
23957;DHT22;12165;45.458;11.062;2022-07-10T11:33:20;34.60;62.30
23957;DHT22;12165;45.458;11.062;2022-07-10T11:35:52;34.50;62.40
23957;DHT22;12165;45.458;11.062;2022-07-10T11:38:23;34.70;61.80
23957;DHT22;12165;45.458;11.062;2022-07-10T11:40:51;34.20;61.50
23957;DHT22;12165;45.458;11.062;2022-07-10T11:43:21;34.00;62.10
23957;DHT22;12165;45.458;11.062;2022-07-10T11:45:52;34.20;62.10
23957;DHT22;12165;45.458;11.062;2022-07-10T11:48:22;34.10;63.00
23957;DHT22;12165;45.458;11.062;2022-07-10T11:50:50;34.50;61.70
23957;DHT22;12165;45.458;11.062;2022-07-10T11:53:26;34.50;62.70
23957;DHT22;12165;45.458;11.062;2022-07-10T11:55:53;34.80;60.90
23957;DHT22;12165;45.458;11.062;2022-07-10T11:58:20;34.50;62.00
23957;DHT22;12165;45.458;11.062;2022-07-10T12:01:03;34.60;59.70
23957;DHT22;12165;45.458;11.062;2022-07-10T12:03:33;34.10;60.00
23957;DHT22;12165;45.458;11.062;2022-07-10T12:06:05;34.20;59.90
23957;DHT22;12165;45.458;11.062;2022-07-10T12:08:43;34.60;59.60
23957;DHT22;12165;45.458;11.062;2022-07-10T12:11:15;34.20;59.90
23957;DHT22;12165;45.458;11.062;2022-07-10T12:13:43;34.10;60.20
23957;DHT22;12165;45.458;11.062;2022-07-10T12:16:11;34.40;61.00
23957;DHT22;12165;45.458;11.062;2022-07-10T12:18:39;34.40;60.60
23957;DHT22;12165;45.458;11.062;2022-07-10T12:21:10;34.20;61.20
23957;DHT22;12165;45.458;11.062;2022-07-10T12:23:38;33.80;61.50
23957;DHT22;12165;45.458;11.062;2022-07-10T12:26:12;33.70;62.20
23957;DHT22;12165;45.458;11.062;2022-07-10T12:28:55;33.70;61.50
23957;DHT22;12165;45.458;11.062;2022-07-10T12:31:32;33.80;61.20
23957;DHT22;12165;45.458;11.062;2022-07-10T12:34:04;34.30;62.60
23957;DHT22;12165;45.458;11.062;2022-07-10T12:36:52;34.90;62.60
23957;DHT22;12165;45.458;11.062;2022-07-10T12:39:24;34.60;62.40
23957;DHT22;12165;45.458;11.062;2022-07-10T12:44:41;34.70;62.30
23957;DHT22;12165;45.458;11.062;2022-07-10T12:47:11;35.00;62.70
23957;DHT22;12165;45.458;11.062;2022-07-10T12:49:49;35.00;62.00
23957;DHT22;12165;45.458;11.062;2022-07-10T12:52:28;35.10;62.30
23957;DHT22;12165;45.458;11.062;2022-07-10T12:55:08;35.30;62.70
23957;DHT22;12165;45.458;11.062;2022-07-10T12:57:53;35.30;62.40
23957;DHT22;12165;45.458;11.062;2022-07-10T13:00:26;35.20;62.90
23957;DHT22;12165;45.458;11.062;2022-07-10T13:02:59;35.50;61.90
23957;DHT22;12165;45.458;11.062;2022-07-10T13:08:08;35.50;61.80
23957;DHT22;12165;45.458;11.062;2022-07-10T13:11:02;35.30;62.00
23957;DHT22;12165;45.458;11.062;2022-07-10T13:13:29;34.40;61.60
23957;DHT22;12165;45.458;11.062;2022-07-10T13:15:56;34.30;61.90
23957;DHT22;12165;45.458;11.062;2022-07-10T13:18:26;34.30;62.60
23957;DHT22;12165;45.458;11.062;2022-07-10T13:20:57;34.30;63.30
23957;DHT22;12165;45.458;11.062;2022-07-10T13:23:29;35.10;63.90
23957;DHT22;12165;45.458;11.062;2022-07-10T13:25:56;35.20;61.90
23957;DHT22;12165;45.458;11.062;2022-07-10T13:28:23;34.70;61.60
23957;DHT22;12165;45.458;11.062;2022-07-10T13:30:51;34.50;61.80
23957;DHT22;12165;45.458;11.062;2022-07-10T13:33:18;34.60;61.90
23957;DHT22;12165;45.458;11.062;2022-07-10T13:35:46;34.50;61.70
23957;DHT22;12165;45.458;11.062;2022-07-10T13:38:13;34.50;61.90
23957;DHT22;12165;45.458;11.062;2022-07-10T13:40:44;35.00;62.00
23957;DHT22;12165;45.458;11.062;2022-07-10T13:43:12;35.10;60.80
23957;DHT22;12165;45.458;11.062;2022-07-10T13:45:40;34.90;61.50
23957;DHT22;12165;45.458;11.062;2022-07-10T13:48:12;34.90;62.40
23957;DHT22;12165;45.458;11.062;2022-07-10T13:50:40;35.40;61.40
23957;DHT22;12165;45.458;11.062;2022-07-10T13:53:07;35.40;61.50
23957;DHT22;12165;45.458;11.062;2022-07-10T13:55:35;35.50;61.20
23957;DHT22;12165;45.458;11.062;2022-07-10T13:58:02;35.70;60.70
23957;DHT22;12165;45.458;11.062;2022-07-10T14:00:29;35.80;60.40
23957;DHT22;12165;45.458;11.062;2022-07-10T14:02:56;35.40;61.90
23957;DHT22;12165;45.458;11.062;2022-07-10T14:05:24;35.50;60.40
23957;DHT22;12165;45.458;11.062;2022-07-10T14:07:51;35.30;60.70
23957;DHT22;12165;45.458;11.062;2022-07-10T14:10:18;34.80;60.80
23957;DHT22;12165;45.458;11.062;2022-07-10T14:12:46;34.90;61.00
23957;DHT22;12165;45.458;11.062;2022-07-10T14:15:14;35.10;61.50
23957;DHT22;12165;45.458;11.062;2022-07-10T14:17:41;35.60;62.80
23957;DHT22;12165;45.458;11.062;2022-07-10T14:20:08;35.60;61.10
23957;DHT22;12165;45.458;11.062;2022-07-10T14:22:36;35.50;61.30
23957;DHT22;12165;45.458;11.062;2022-07-10T14:25:06;35.40;61.30
23957;DHT22;12165;45.458;11.062;2022-07-10T14:27:35;35.40;60.90
23957;DHT22;12165;45.458;11.062;2022-07-10T14:30:04;35.60;60.70
23957;DHT22;12165;45.458;11.062;2022-07-10T14:32:31;35.30;61.00
23957;DHT22;12165;45.458;11.062;2022-07-10T14:34:58;35.00;61.30
23957;DHT22;12165;45.458;11.062;2022-07-10T14:37:25;35.00;62.70
23957;DHT22;12165;45.458;11.062;2022-07-10T14:39:52;34.70;60.80
23957;DHT22;12165;45.458;11.062;2022-07-10T14:42:19;34.30;62.30
23957;DHT22;12165;45.458;11.062;2022-07-10T14:44:46;33.90;62.20
23957;DHT22;12165;45.458;11.062;2022-07-10T14:47:13;33.40;63.10
23957;DHT22;12165;45.458;11.062;2022-07-10T14:49:42;33.80;63.20
23957;DHT22;12165;45.458;11.062;2022-07-10T14:52:08;33.80;62.80
23957;DHT22;12165;45.458;11.062;2022-07-10T14:54:36;33.50;62.80
23957;DHT22;12165;45.458;11.062;2022-07-10T14:57:04;33.10;63.30
23957;DHT22;12165;45.458;11.062;2022-07-10T14:59:31;33.00;63.20
23957;DHT22;12165;45.458;11.062;2022-07-10T15:01:58;32.40;64.60
23957;DHT22;12165;45.458;11.062;2022-07-10T15:04:25;32.50;65.00
23957;DHT22;12165;45.458;11.062;2022-07-10T15:06:52;32.80;64.50
23957;DHT22;12165;45.458;11.062;2022-07-10T15:09:19;33.00;64.50
23957;DHT22;12165;45.458;11.062;2022-07-10T15:11:46;33.40;64.10
23957;DHT22;12165;45.458;11.062;2022-07-10T15:14:13;33.10;64.30
23957;DHT22;12165;45.458;11.062;2022-07-10T15:16:40;33.20;64.30
23957;DHT22;12165;45.458;11.062;2022-07-10T15:19:07;33.60;63.50
23957;DHT22;12165;45.458;11.062;2022-07-10T15:21:36;33.80;63.90
23957;DHT22;12165;45.458;11.062;2022-07-10T15:24:04;33.40;64.40
23957;DHT22;12165;45.458;11.062;2022-07-10T15:26:31;33.10;65.20
23957;DHT22;12165;45.458;11.062;2022-07-10T15:28:58;32.80;66.30
23957;DHT22;12165;45.458;11.062;2022-07-10T15:31:26;32.90;65.30
23957;DHT22;12165;45.458;11.062;2022-07-10T15:33:53;32.90;65.10
23957;DHT22;12165;45.458;11.062;2022-07-10T15:36:20;32.70;65.20
23957;DHT22;12165;45.458;11.062;2022-07-10T15:38:48;32.50;64.60
23957;DHT22;12165;45.458;11.062;2022-07-10T15:41:15;32.30;64.60
23957;DHT22;12165;45.458;11.062;2022-07-10T15:43:42;32.30;65.10
23957;DHT22;12165;45.458;11.062;2022-07-10T15:46:12;32.50;65.50
23957;DHT22;12165;45.458;11.062;2022-07-10T15:48:41;32.60;65.10
23957;DHT22;12165;45.458;11.062;2022-07-10T15:51:08;32.70;65.20
23957;DHT22;12165;45.458;11.062;2022-07-10T15:53:36;32.80;65.40
23957;DHT22;12165;45.458;11.062;2022-07-10T15:56:04;32.70;65.70
23957;DHT22;12165;45.458;11.062;2022-07-10T15:58:31;32.60;65.50
23957;DHT22;12165;45.458;11.062;2022-07-10T16:00:58;32.60;65.90
23957;DHT22;12165;45.458;11.062;2022-07-10T16:03:25;32.40;65.60
23957;DHT22;12165;45.458;11.062;2022-07-10T16:05:52;32.40;65.40